Time;durP1;ratioP1;P1;durP2;ratioP2;P2;SDS_P1;SDS_P2;PMS_P1;PMS_P2;Temp;Humidity;BMP_temperature;BMP_pressure;BME280_temperature;BME280_humidity;BME280_pressure;Samples;Min_cycle;Max_cycle;Signal;HPM_P1;HPM_P2
2023/10/28 00:00:17;;;;;;;;;;;;;;;22.35;57.06;99630.56;7397877;19;1041;-38
2023/10/28 00:02:45;;;;;;;;;;;;;;;22.34;57.01;99620.78;7396827;19;1802;-38
2023/10/28 00:05:14;;;;;;;;;;;;;;;22.38;57.12;99635.56;7396087;19;1836;-38
2023/10/28 00:07:46;;;;;;;;;;;;;;;22.38;56.86;99624.78;7395376;19;1846;-38
2023/10/28 00:10:14;;;;;;;;;;;;;;;22.37;56.86;99633.91;7396362;19;1721;-38
2023/10/28 00:12:43;;;;;;;;;;;;;;;22.34;56.97;99612.72;7394683;19;1750;-38
2023/10/28 00:15:13;;;;;;;;;;;;;;;22.34;56.98;99612.72;7395957;19;1044;-38
2023/10/28 00:17:39;;;;;;;;;;;;;;;22.33;56.95;99633.44;7394756;19;1536;-38
2023/10/28 00:20:08;;;;;;;;;;;;;;;22.37;56.93;99623.13;7395388;19;1377;-38
2023/10/28 00:22:36;;;;;;;;;;;;;;;22.38;57.01;99620.25;7392979;19;1865;-38
2023/10/28 00:25:08;;;;;;;;;;;;;;;22.37;56.72;99617.75;7393996;19;1792;-38
2023/10/28 00:27:36;;;;;;;;;;;;;;;22.38;56.65;99625.63;7393202;19;1456;-38
2023/10/28 00:30:07;;;;;;;;;;;;;;;22.37;56.55;99623.13;7393462;19;1455;-38
2023/10/28 00:32:36;;;;;;;;;;;;;;;22.35;56.86;99622.47;7395648;19;1508;-39
2023/10/28 00:35:04;;;;;;;;;;;;;;;22.38;56.83;99614.00;7394978;19;1447;-38
2023/10/28 00:37:32;;;;;;;;;;;;;;;22.38;56.78;99631.03;7393981;19;1429;-38
2023/10/28 00:40:01;;;;;;;;;;;;;;;22.37;56.66;99617.75;7396205;19;1213;-38
2023/10/28 00:42:33;;;;;;;;;;;;;;;22.32;56.88;99614.75;7389865;19;1885;-38
2023/10/28 00:45:01;;;;;;;;;;;;;;;22.35;56.94;99614.41;7394215;19;1591;-38
2023/10/28 00:47:30;;;;;;;;;;;;;;;22.34;56.87;99613.56;7394030;19;1733;-38
2023/10/28 00:49:58;;;;;;;;;;;;;;;22.35;56.81;99619.78;7394132;19;1570;-38
2023/10/28 00:52:27;;;;;;;;;;;;;;;22.31;56.82;99613.09;7394699;19;1520;-38
2023/10/28 00:54:56;;;;;;;;;;;;;;;22.33;56.82;99619.97;7395417;19;1396;-38
2023/10/28 00:57:24;;;;;;;;;;;;;;;22.34;56.98;99615.41;7380347;19;1725;-38
2023/10/28 00:59:56;;;;;;;;;;;;;;;22.32;57.12;99620.13;7393169;19;1849;-38
2023/10/28 01:02:24;;;;;;;;;;;;;;;22.33;56.94;99606.50;7393055;19;1931;-38
2023/10/28 01:04:53;;;;;;;;;;;;;;;22.32;57.00;99614.75;7393858;19;1719;-38
2023/10/28 01:07:21;;;;;;;;;;;;;;;22.34;56.82;99624.34;7393161;19;1840;-38
2023/10/28 01:09:49;;;;;;;;;;;;;;;22.35;56.76;99627.88;7392958;19;1683;-38
2023/10/28 01:12:17;;;;;;;;;;;;;;;22.35;56.80;99620.59;7392021;19;1492;-38
2023/10/28 01:14:46;;;;;;;;;;;;;;;22.34;56.89;99623.47;7394082;19;1380;-38
2023/10/28 01:17:17;;;;;;;;;;;;;;;22.35;57.09;99614.41;7391260;19;1915;-38
2023/10/28 01:19:45;;;;;;;;;;;;;;;22.35;57.04;99614.41;7392288;19;1800;-38
2023/10/28 01:22:16;;;;;;;;;;;;;;;22.40;56.92;99644.28;7392755;19;1861;-38
2023/10/28 01:24:45;;;;;;;;;;;;;;;22.35;57.00;99636.78;7392232;19;1781;-38
2023/10/28 01:27:13;;;;;;;;;;;;;;;22.36;57.01;99648.38;7393738;19;1631;-38
2023/10/28 01:29:41;;;;;;;;;;;;;;;22.39;56.87;99631.84;7388770;19;1456;-38
2023/10/28 01:32:10;;;;;;;;;;;;;;;22.40;57.00;99655.06;7392542;19;1432;-38
2023/10/28 01:34:47;;;;;;;;;;;;;;;22.41;56.89;99662.13;7393447;19;1486;-38
2023/10/28 01:37:18;;;;;;;;;;;;;;;22.37;56.74;99660.84;7392524;19;1468;-38
2023/10/28 01:39:50;;;;;;;;;;;;;;;22.41;56.84;99662.13;7393261;19;1348;-38
2023/10/28 01:42:19;;;;;;;;;;;;;;;22.38;56.88;99663.34;7389640;19;1859;-38
2023/10/28 01:44:48;;;;;;;;;;;;;;;22.38;56.84;99662.50;7391573;19;1669;-39
2023/10/28 01:47:16;;;;;;;;;;;;;;;22.40;56.66;99676.59;7392037;19;1532;-39
2023/10/28 01:49:45;;;;;;;;;;;;;;;22.36;56.87;99681.56;7391355;19;1468;-39
2023/10/28 01:52:14;;;;;;;;;;;;;;;22.38;56.70;99700.19;7393379;19;1349;-38
2023/10/28 01:54:45;;;;;;;;;;;;;;;22.38;56.61;99694.81;7390435;19;1561;-38
2023/10/28 01:57:13;;;;;;;;;;;;;;;22.42;56.74;99686.19;7376363;19;1761;-38
2023/10/28 01:59:43;;;;;;;;;;;;;;;22.39;56.78;99683.88;7390782;19;1444;-39
2023/10/28 02:02:11;;;;;;;;;;;;;;;22.38;56.77;99665.19;7390167;19;1848;-38
2023/10/28 02:04:40;;;;;;;;;;;;;;;22.41;56.71;99670.22;7392193;19;1472;-38
2023/10/28 02:07:08;;;;;;;;;;;;;;;22.37;56.57;99671.59;7389087;19;1466;-38
2023/10/28 02:09:36;;;;;;;;;;;;;;;22.39;56.69;99675.78;7390701;19;1519;-38
2023/10/28 02:12:08;;;;;;;;;;;;;;;22.39;56.69;99672.25;7391870;19;1558;-38
2023/10/28 02:14:36;;;;;;;;;;;;;;;;;;7390571;19;1531;-38
2023/10/28 02:17:05;;;;;;;;;;;;;;;22.41;56.48;99683.69;7391609;19;1601;-38
2023/10/28 02:19:33;;;;;;;;;;;;;;;22.46;56.38;99689.34;7391096;19;1575;-39
2023/10/28 02:22:02;;;;;;;;;;;;;;;22.41;56.50;99710.63;7391089;19;1857;-38
2023/10/28 02:24:31;;;;;;;;;;;;;;;22.41;56.62;99711.44;7391868;19;1484;-39
2023/10/28 02:26:59;;;;;;;;;;;;;;;22.42;56.60;99718.53;7391738;19;1554;-38
2023/10/28 02:29:30;;;;;;;;;;;;;;;22.41;56.50;99730.31;7389227;19;1432;-38
2023/10/28 02:31:58;;;;;;;;;;;;;;;22.45;56.47;99730.78;7390549;19;1519;-38
2023/10/28 02:34:26;;;;;;;;;;;;;;;22.40;56.73;99725.97;7390116;19;1565;-38
2023/10/28 02:36:55;;;;;;;;;;;;;;;22.41;56.43;99741.09;7391933;19;1992;-38
2023/10/28 02:39:23;;;;;;;;;;;;;;;22.43;56.55;99733.66;7389802;19;1916;-38
2023/10/28 02:41:52;;;;;;;;;;;;;;;22.42;56.46;99729.31;7393077;19;1850;-38
2023/10/28 02:44:20;;;;;;;;;;;;;;;22.48;56.24;99735.78;7397579;19;1787;-38
2023/10/28 02:46:51;;;;;;;;;;;;;;;22.47;56.29;99736.81;7398686;19;1846;-38
2023/10/28 02:49:19;;;;;;;;;;;;;;;22.43;56.52;99740.91;7397638;19;2013;-38
2023/10/28 02:51:48;;;;;;;;;;;;;;;22.43;56.63;99746.28;7397476;19;1523;-38
2023/10/28 02:54:16;;;;;;;;;;;;;;;22.45;56.38;99755.03;7398108;19;1499;-40
2023/10/28 02:56:45;;;;;;;;;;;;;;;22.43;56.33;99760.59;7384218;19;1504;-38
2023/10/28 02:59:13;;;;;;;;;;;;;;;22.46;56.32;99748.59;7397548;19;1569;-41
2023/10/28 03:01:41;;;;;;;;;;;;;;;22.43;56.42;99735.53;7399084;19;1863;-38
2023/10/28 03:04:13;;;;;;;;;;;;;;;22.40;56.45;99742.13;7399004;19;1852;-38
2023/10/28 03:06:41;;;;;;;;;;;;;;;22.44;56.25;99756.03;7398111;19;1837;-38
2023/10/28 03:09:10;;;;;;;;;;;;;;;22.40;56.29;99725.97;7398584;19;1721;-38
2023/10/28 03:11:38;;;;;;;;;;;;;;;22.41;56.25;99743.78;7399132;19;1495;-41
2023/10/28 03:14:06;;;;;;;;;;;;;;;22.47;56.20;99733.31;7397295;19;1542;-38
2023/10/28 03:16:35;;;;;;;;;;;;;;;22.47;56.19;99750.28;7397888;19;1562;-38
2023/10/28 03:19:03;;;;;;;;;;;;;;;22.49;56.33;99761.72;7398061;19;1393;-38
2023/10/28 03:21:34;;;;;;;;;;;;;;;22.43;56.34;99752.50;7397034;19;1845;-38
2023/10/28 03:24:02;;;;;;;;;;;;;;;22.46;56.24;99780.94;7398089;19;1392;-38
2023/10/28 03:26:32;;;;;;;;;;;;;;;22.43;56.20;99757.91;7398181;19;1534;-38
2023/10/28 03:29:00;;;;;;;;;;;;;;;22.45;56.44;99765.81;7396415;19;1056;-38
2023/10/28 03:31:29;;;;;;;;;;;;;;;22.44;56.41;99782.97;7398738;19;1788;-38
2023/10/28 03:33:57;;;;;;;;;;;;;;;22.40;56.41;99774.44;7397536;19;1903;-38
2023/10/28 03:36:25;;;;;;;;;;;;;;;22.39;56.46;99782.69;7396881;19;1867;-38
2023/10/28 03:38:56;;;;;;;;;;;;;;;22.43;56.55;99795.63;7397087;19;1374;-38
2023/10/28 03:41:25;;;;;;;;;;;;;;;22.48;56.40;99796.91;7398712;19;1152;-38
2023/10/28 03:43:53;;;;;;;;;;;;;;;22.43;56.48;99784.84;7393922;19;1896;-39
2023/10/28 03:46:21;;;;;;;;;;;;;;;22.42;56.51;99790.41;7392889;19;1747;-38
2023/10/28 03:48:50;;;;;;;;;;;;;;;22.39;56.50;99783.53;7398409;19;1722;-39
2023/10/28 03:51:18;;;;;;;;;;;;;;;22.40;56.69;99803.22;7396416;19;1713;-39
2023/10/28 03:53:47;;;;;;;;;;;;;;;22.38;56.72;99786.41;7395947;19;1380;-38
2023/10/28 03:56:18;;;;;;;;;;;;;;;22.34;56.79;99796.72;7397134;19;1936;-38
2023/10/28 03:58:46;;;;;;;;;;;;;;;22.37;56.68;99806.28;7383107;19;1927;-39
2023/10/28 04:01:15;;;;;;;;;;;;;;;22.36;56.76;99794.69;7394033;19;1825;-38
2023/10/28 04:03:44;;;;;;;;;;;;;;;22.35;56.62;99797.56;7395999;19;1891;-38
2023/10/28 04:06:12;;;;;;;;;;;;;;;22.31;56.79;99786.28;7397223;19;1580;-39
2023/10/28 04:08:40;;;;;;;;;;;;;;;22.31;56.90;99785.47;7396551;19;1491;-38
2023/10/28 04:11:10;;;;;;;;;;;;;;;22.30;56.98;99789.16;7397922;19;1042;-39
2023/10/28 04:13:41;;;;;;;;;;;;;;;22.33;56.82;99780.72;7395324;19;1837;-39
2023/10/28 04:16:09;;;;;;;;;;;;;;;22.40;56.76;99770.88;7397002;19;1488;-38
2023/10/28 04:18:38;;;;;;;;;;;;;;;22.40;56.64;99757.41;7396399;19;1439;-38
2023/10/28 04:21:07;;;;;;;;;;;;;;;22.33;56.57;99780.72;7396661;19;1572;-38
2023/10/28 04:23:35;;;;;;;;;;;;;;;22.40;56.60;99787.06;7395210;19;1856;-38
2023/10/28 04:26:03;;;;;;;;;;;;;;;22.36;56.53;99800.06;7393516;19;1825;-38
2023/10/28 04:28:32;;;;;;;;;;;;;;;22.36;56.69;99818.94;7391836;19;1768;-38
2023/10/28 04:31:03;;;;;;;;;;;;;;;22.41;56.60;99808.44;7394580;19;1458;-38
2023/10/28 04:33:31;;;;;;;;;;;;;;;22.40;56.55;99811.28;7395163;19;1808;-39
2023/10/28 04:35:59;;;;;;;;;;;;;;;22.35;56.52;99813.72;7395337;19;1706;-38
2023/10/28 04:38:28;;;;;;;;;;;;;;;22.35;56.67;99824.47;7393519;19;1407;-38
2023/10/28 04:40:57;;;;;;;;;;;;;;;22.30;57.28;99818.78;7393665;19;1385;-38
2023/10/28 04:43:25;;;;;;;;;;;;;;;22.38;56.84;99799.88;7391688;19;1865;-38
2023/10/28 04:45:55;;;;;;;;;;;;;;;22.42;57.10;99798.47;7396245;19;1789;-39
2023/10/28 04:48:27;;;;;;;;;;;;;;;22.37;57.14;99803.59;7393939;19;1717;-38
2023/10/28 04:50:55;;;;;;;;;;;;;;;22.23;57.31;99811.41;7395139;19;1987;-38
2023/10/28 04:53:23;;;;;;;;;;;;;;;22.17;58.53;99830.97;7393103;19;1640;-38
2023/10/28 04:55:52;;;;;;;;;;;;;;;22.17;53.38;99817.50;7393842;19;1913;-38
2023/10/28 04:58:21;;;;;;;;;;;;;;;22.05;57.65;99835.94;7379892;19;1558;-38
2023/10/28 05:00:49;;;;;;;;;;;;;;;22.05;55.88;99835.09;7394050;19;1664;-39
2023/10/28 05:03:17;;;;;;;;;;;;;;;22.04;58.14;99849.56;7389945;19;1861;-39
2023/10/28 05:05:48;;;;;;;;;;;;;;;21.96;57.60;99853.13;7392104;19;1600;-39
2023/10/28 05:08:17;;;;;;;;;;;;;;;21.97;57.08;99851.31;7393533;19;1468;-39
2023/10/28 05:10:45;;;;;;;;;;;;;;;21.87;56.61;99853.38;7392117;19;1317;-39
2023/10/28 05:13:13;;;;;;;;;;;;;;;21.94;57.65;99862.41;7393517;19;1774;-38
2023/10/28 05:15:41;;;;;;;;;;;;;;;22.15;56.76;99876.09;7391981;19;1415;-38
2023/10/28 05:18:10;;;;;;;;;;;;;;;22.21;56.46;99890.69;7391116;19;1619;-38
2023/10/28 05:20:38;;;;;;;;;;;;;;;22.28;56.53;99898.94;7389711;19;1775;-38
2023/10/28 05:23:09;;;;;;;;;;;;;;;22.26;56.58;99900.97;7388215;19;1856;-38
2023/10/28 05:25:37;;;;;;;;;;;;;;;22.21;56.35;99888.00;7389570;19;1413;-38
2023/10/28 05:28:06;;;;;;;;;;;;;;;22.22;56.32;99898.63;7390670;19;1586;-38
2023/10/28 05:30:34;;;;;;;;;;;;;;;22.27;56.39;99889.19;7391367;19;1695;-38
2023/10/28 05:33:02;;;;;;;;;;;;;;;22.24;56.27;99904.69;7388796;19;1495;-38
2023/10/28 05:35:31;;;;;;;;;;;;;;;22.32;56.07;99921.78;7389044;19;1496;-38
2023/10/28 05:38:00;;;;;;;;;;;;;;;22.36;56.10;99923.97;7390033;19;1439;-38
2023/10/28 05:40:30;;;;;;;;;;;;;;;22.42;55.83;99917.00;7390548;19;1254;-38
2023/10/28 05:42:59;;;;;;;;;;;;;;;22.43;55.81;99921.41;7390600;19;1845;-38
2023/10/28 05:45:28;;;;;;;;;;;;;;;22.47;55.90;99927.28;7391376;19;1519;-38
2023/10/28 05:47:57;;;;;;;;;;;;;;;22.54;56.04;99934.47;7394019;19;1598;-39
2023/10/28 05:50:27;;;;;;;;;;;;;;;22.59;56.09;99940.13;7393812;19;1421;-38
2023/10/28 05:52:55;;;;;;;;;;;;;;;22.64;55.85;99932.38;7394067;19;1619;-38
2023/10/28 05:55:23;;;;;;;;;;;;;;;22.59;56.09;99932.06;7393870;19;1515;-39
2023/10/28 05:57:51;;;;;;;;;;;;;;;;;;7393684;19;1640;-38
2023/10/28 06:00:23;;;;;;;;;;;;;;;22.24;57.15;99942.41;7393903;19;1491;-38
2023/10/28 06:02:51;;;;;;;;;;;;;;;22.16;57.17;99939.72;7393219;19;1876;-39
2023/10/28 06:05:19;;;;;;;;;;;;;;;22.07;57.45;99930.00;7393687;19;1501;-39
2023/10/28 06:07:50;;;;;;;;;;;;;;;22.09;57.47;99944.13;7393355;19;1733;-38
2023/10/28 06:10:18;;;;;;;;;;;;;;;22.18;57.27;99953.84;7394568;19;1528;-38
2023/10/28 06:12:46;;;;;;;;;;;;;;;22.23;56.89;99962.22;7393788;19;1593;-38
2023/10/28 06:15:14;;;;;;;;;;;;;;;22.29;56.88;99967.97;7394561;19;1401;-39
2023/10/28 06:17:45;;;;;;;;;;;;;;;22.33;56.51;99980.06;7400532;19;1365;-39
2023/10/28 06:20:14;;;;;;;;;;;;;;;22.23;56.85;99983.75;7401094;19;1389;-39
2023/10/28 06:22:42;;;;;;;;;;;;;;;22.24;56.90;99977.41;7400086;19;1846;-39
2023/10/28 06:25:11;;;;;;;;;;;;;;;22.29;56.46;99993.03;7400989;19;1428;-39
2023/10/28 06:27:39;;;;;;;;;;;;;;;22.41;56.44;99990.78;7400145;19;1404;-39
2023/10/28 06:30:11;;;;;;;;;;;;;;;22.55;56.13;100016.97;7400330;19;1703;-39
2023/10/28 06:32:40;;;;;;;;;;;;;;;22.54;55.95;100034.16;7400300;19;1562;-39
2023/10/28 06:35:13;;;;;;;;;;;;;;;22.51;56.10;100031.81;7400292;19;1333;-39
2023/10/28 06:37:41;;;;;;;;;;;;;;;22.43;56.02;100038.06;7400469;19;1806;-39
2023/10/28 06:40:12;;;;;;;;;;;;;;;22.33;56.60;100044.69;7402401;19;1037;-39
2023/10/28 06:42:40;;;;;;;;;;;;;;;22.25;56.46;100029.41;7398194;19;1837;-39
2023/10/28 06:45:10;;;;;;;;;;;;;;;22.32;56.63;100045.69;7401610;19;1757;-39
2023/10/28 06:47:38;;;;;;;;;;;;;;;;;;7399944;19;1744;-38
2023/10/28 06:50:07;;;;;;;;;;;;;;;22.36;56.12;100037.13;7400136;19;1778;-39
2023/10/28 06:52:39;;;;;;;;;;;;;;;22.35;56.19;100039.97;7400138;19;1689;-38
2023/10/28 06:55:12;;;;;;;;;;;;;;;22.32;56.35;100037.63;7399997;19;1785;-38
2023/10/28 06:57:41;;;;;;;;;;;;;;;22.31;56.54;100047.56;7400707;19;1693;-38
2023/10/28 07:00:13;;;;;;;;;;;;;;;22.31;56.48;100033.25;7399076;19;1543;-38
2023/10/28 07:02:41;;;;;;;;;;;;;;;22.33;56.44;100050.91;7399052;19;1872;-38
2023/10/28 07:05:10;;;;;;;;;;;;;;;22.37;56.43;100048.72;7399195;19;1820;-38
2023/10/28 07:07:42;;;;;;;;;;;;;;;22.41;56.17;100041.97;7399740;19;1740;-38
2023/10/28 07:10:10;;;;;;;;;;;;;;;22.47;55.96;100035.88;7400503;19;1490;-38
2023/10/28 07:12:38;;;;;;;;;;;;;;;22.48;55.91;100034.84;7399086;19;1690;-38
2023/10/28 07:15:09;;;;;;;;;;;;;;;22.57;55.78;100035.66;7400443;19;1023;-38
2023/10/28 07:17:37;;;;;;;;;;;;;;;22.59;55.42;100031.75;7398072;19;1479;-38
2023/10/28 07:20:06;;;;;;;;;;;;;;;22.64;55.58;100040.16;7399407;19;1788;-38
2023/10/28 07:22:34;;;;;;;;;;;;;;;22.60;55.52;100044.22;7398423;19;1732;-38
2023/10/28 07:25:06;;;;;;;;;;;;;;;22.62;55.55;100036.81;7395921;19;1848;-38
2023/10/28 07:27:34;;;;;;;;;;;;;;;22.63;55.34;100073.50;7394810;19;1325;-38
2023/10/28 07:30:03;;;;;;;;;;;;;;;22.68;55.37;100061.34;7397443;19;1711;-39
2023/10/28 07:32:31;;;;;;;;;;;;;;;22.74;55.42;100072.28;7397329;19;1511;-38
2023/10/28 07:35:00;;;;;;;;;;;;;;;22.73;55.29;100070.59;7397439;19;1630;-38
2023/10/28 07:37:28;;;;;;;;;;;;;;;22.71;55.35;100088.78;7398258;19;1714;-38
2023/10/28 07:39:56;;;;;;;;;;;;;;;22.62;55.35;100090.72;7399975;19;1031;-38
2023/10/28 07:42:27;;;;;;;;;;;;;;;22.62;55.33;100090.72;7395482;19;1917;-38
2023/10/28 07:44:56;;;;;;;;;;;;;;;22.58;55.56;100083.13;7397872;19;1917;-38
2023/10/28 07:47:24;;;;;;;;;;;;;;;22.47;55.69;100087.06;7397331;19;1927;-38
2023/10/28 07:49:52;;;;;;;;;;;;;;;22.44;55.85;100072.09;7397207;19;1745;-38
2023/10/28 07:52:21;;;;;;;;;;;;;;;22.51;55.53;100079.47;7396766;19;1757;-38
2023/10/28 07:54:49;;;;;;;;;;;;;;;22.56;55.37;100086.03;7396912;19;1721;-38
2023/10/28 07:57:17;;;;;;;;;;;;;;;22.50;55.68;100089.41;7396758;19;1736;-38
2023/10/28 07:59:48;;;;;;;;;;;;;;;22.49;55.64;100106.59;7398616;19;1769;-39
2023/10/28 08:02:17;;;;;;;;;;;;;;;22.42;55.80;100108.28;7396203;19;1447;-38
2023/10/28 08:04:46;;;;;;;;;;;;;;;22.39;56.02;100108.66;7395738;19;1853;-38
2023/10/28 08:07:15;;;;;;;;;;;;;;;22.43;55.74;100091.94;7395270;19;1456;-38
2023/10/28 08:09:45;;;;;;;;;;;;;;;22.44;55.78;100108.94;7396471;19;1488;-38
2023/10/28 08:12:13;;;;;;;;;;;;;;;22.42;55.75;100095.69;7397218;19;1564;-38
2023/10/28 08:14:44;;;;;;;;;;;;;;;22.50;55.52;100110.97;7397463;19;1857;-38
2023/10/28 08:17:16;;;;;;;;;;;;;;;22.52;55.47;100105.38;7398953;19;1026;-38
2023/10/28 08:19:44;;;;;;;;;;;;;;;22.53;55.37;100118.69;7395814;19;1836;-38
2023/10/28 08:22:12;;;;;;;;;;;;;;;22.60;55.25;100118.81;7393153;19;1397;-38
2023/10/28 08:24:41;;;;;;;;;;;;;;;22.50;55.71;100108.28;7394499;19;1882;-38
2023/10/28 08:27:11;;;;;;;;;;;;;;;22.49;55.53;100121.91;7397556;19;1547;-38
2023/10/28 08:29:39;;;;;;;;;;;;;;;22.50;55.41;100132.53;7397067;19;1740;-39
2023/10/28 08:32:08;;;;;;;;;;;;;;;22.50;55.48;100121.75;7395847;19;1761;-38
2023/10/28 08:34:43;;;;;;;;;;;;;;;22.54;55.46;100123.09;7397105;19;1730;-38
2023/10/28 08:37:11;;;;;;;;;;;;;;;22.56;55.20;100118.34;7397241;19;1455;-38
2023/10/28 08:39:40;;;;;;;;;;;;;;;22.61;55.01;100121.34;7395734;19;1296;-38
2023/10/28 08:42:09;;;;;;;;;;;;;;;22.59;55.12;100115.28;7395518;19;1654;-38
2023/10/28 08:44:37;;;;;;;;;;;;;;;22.53;55.38;100118.69;7395528;19;1850;-38
2023/10/28 08:47:09;;;;;;;;;;;;;;;22.57;55.11;100120.03;7393670;19;1452;-38
2023/10/28 08:49:42;;;;;;;;;;;;;;;22.68;54.87;100137.69;7395145;19;1381;-39
2023/10/28 08:52:14;;;;;;;;;;;;;;;22.70;55.06;100142.88;7397534;19;1729;-38
2023/10/28 08:54:42;;;;;;;;;;;;;;;22.73;54.80;100121.81;7396129;19;1222;-39
2023/10/28 08:57:11;;;;;;;;;;;;;;;22.74;54.77;100125.31;7392781;19;1225;-38
2023/10/28 08:59:39;;;;;;;;;;;;;;;22.66;54.95;100123.53;7394632;19;1540;-38
2023/10/28 09:02:09;;;;;;;;;;;;;;;22.67;55.11;100127.06;7395077;19;1393;-42
2023/10/28 09:04:41;;;;;;;;;;;;;;;22.67;55.21;100127.91;7393918;19;1999;-38
2023/10/28 09:07:09;;;;;;;;;;;;;;;22.70;54.87;100118.63;7394762;19;1728;-38
2023/10/28 09:09:39;;;;;;;;;;;;;;;22.73;54.90;100112.88;7395293;19;1500;-38
2023/10/28 09:12:08;;;;;;;;;;;;;;;22.81;54.86;100124.44;7395474;19;1721;-38
2023/10/28 09:14:37;;;;;;;;;;;;;;;22.82;54.56;100119.94;7397033;19;951;-38
2023/10/28 09:17:06;;;;;;;;;;;;;;;22.82;54.69;100122.63;7393024;19;1479;-38
2023/10/28 09:19:35;;;;;;;;;;;;;;;22.86;54.62;100118.56;7394424;19;1667;-38
2023/10/28 09:22:06;;;;;;;;;;;;;;;22.86;54.67;100121.25;7393828;19;1737;-38
2023/10/28 09:24:34;;;;;;;;;;;;;;;22.95;54.41;100124.72;7393903;19;1833;-38
2023/10/28 09:27:04;;;;;;;;;;;;;;;22.90;54.47;100141.44;7392917;19;1795;-38
2023/10/28 09:29:35;;;;;;;;;;;;;;;22.91;54.44;100142.28;7393247;19;1428;-38
2023/10/28 09:32:08;;;;;;;;;;;;;;;22.90;54.42;100125.28;7394979;19;1439;-38
2023/10/28 09:34:38;;;;;;;;;;;;;;;22.89;54.55;100145.16;7394427;19;1488;-38
2023/10/28 09:37:09;;;;;;;;;;;;;;;22.94;54.30;100140.06;7395842;19;1776;-38
2023/10/28 09:39:39;;;;;;;;;;;;;;;22.91;54.27;100139.59;7396058;19;1782;-38
2023/10/28 09:42:08;;;;;;;;;;;;;;;22.87;54.40;100139.09;7396217;19;1812;-38
2023/10/28 09:44:36;;;;;;;;;;;;;;;22.95;54.31;100140.91;7393915;19;1904;-38
2023/10/28 09:47:07;;;;;;;;;;;;;;;22.97;54.26;100138.88;7393364;19;1445;-38
2023/10/28 09:49:36;;;;;;;;;;;;;;;22.99;54.38;100144.94;7391933;19;1456;-38
2023/10/28 09:52:09;;;;;;;;;;;;;;;22.98;54.14;100151.34;7390113;19;1495;-39
2023/10/28 09:54:38;;;;;;;;;;;;;;;22.87;54.58;100147.19;7393178;19;1534;-38
2023/10/28 09:57:09;;;;;;;;;;;;;;;22.93;54.50;100145.63;7392792;19;1682;-38
2023/10/28 10:02:36;;;;;;;;;;;;;;;22.83;54.75;100132.38;7393765;19;1650;-38
2023/10/28 10:05:07;;;;;;;;;;;;;;;22.78;54.83;100129.34;7391994;19;1849;-38
2023/10/28 10:07:38;;;;;;;;;;;;;;;22.82;54.46;100145.03;7394052;19;1819;-38
2023/10/28 10:10:13;;;;;;;;;;;;;;;22.93;54.32;100137.53;7395662;19;966;-38
2023/10/28 10:12:41;;;;;;;;;;;;;;;23.00;54.24;100125.06;7391234;19;1781;-38
2023/10/28 10:15:11;;;;;;;;;;;;;;;23.08;54.07;100121.47;7391895;19;1536;-38
2023/10/28 10:17:41;;;;;;;;;;;;;;;23.09;54.03;100123.16;7393939;19;1345;-38
2023/10/28 10:20:11;;;;;;;;;;;;;;;23.09;53.91;100102.41;7393204;19;1533;-38
2023/10/28 10:22:43;;;;;;;;;;;;;;;23.11;54.12;100115.72;7393166;19;1570;-39
2023/10/28 10:25:12;;;;;;;;;;;;;;;23.08;54.00;100108.84;7390932;19;1855;-39
2023/10/28 10:27:44;;;;;;;;;;;;;;;23.10;54.02;100111.34;7394871;19;1523;-39
2023/10/28 10:30:13;;;;;;;;;;;;;;;23.11;54.02;100116.56;7393369;19;1618;-38
2023/10/28 10:32:47;;;;;;;;;;;;;;;23.14;53.96;100118.06;7393774;19;1952;-38
2023/10/28 10:35:28;;;;;;;;;;;;;;;23.11;53.98;100121.97;7393723;19;1718;-38
2023/10/28 10:38:05;;;;;;;;;;;;;;;23.08;53.92;100102.59;7394154;19;1744;-38
2023/10/28 10:40:34;;;;;;;;;;;;;;;23.03;54.15;100122.84;7394205;19;1490;-38
2023/10/28 10:43:09;;;;;;;;;;;;;;;23.10;53.86;100122.13;7393604;19;1690;-45
2023/10/28 10:45:38;;;;;;;;;;;;;;;23.06;53.87;100118.13;7391857;19;1869;-38
2023/10/28 10:48:08;;;;;;;;;;;;;;;23.07;53.95;100119.81;7393706;19;1709;-38
2023/10/28 10:50:37;;;;;;;;;;;;;;;23.05;54.08;100119.16;7394022;19;1860;-38
2023/10/28 10:53:09;;;;;;;;;;;;;;;23.06;53.90;100107.31;7394168;19;1828;-39
2023/10/28 10:55:38;;;;;;;;;;;;;;;23.06;53.99;100113.59;7394581;19;1808;-38
2023/10/28 10:58:06;;;;;;;;;;;;;;;23.05;54.09;100109.19;7394838;19;1916;-38
2023/10/28 11:00:37;;;;;;;;;;;;;;;23.12;54.02;100117.41;7393712;19;1923;-38
2023/10/28 11:03:07;;;;;;;;;;;;;;;23.06;54.20;100139.69;7399616;19;1623;-38
2023/10/28 11:05:37;;;;;;;;;;;;;;;23.04;54.15;100121.00;7398701;19;1851;-38
2023/10/28 11:08:09;;;;;;;;;;;;;;;23.02;54.15;100129.28;7401582;19;1741;-38
2023/10/28 11:10:40;;;;;;;;;;;;;;;22.99;54.38;100118.78;7400118;19;1793;-38
2023/10/28 11:13:08;;;;;;;;;;;;;;;23.00;54.06;100109.69;7398677;19;1824;-38
2023/10/28 11:15:37;;;;;;;;;;;;;;;22.99;54.11;100118.78;7398109;19;1836;-38
2023/10/28 11:18:07;;;;;;;;;;;;;;;22.88;54.20;100113.81;7398398;19;1479;-38
2023/10/28 11:20:35;;;;;;;;;;;;;;;22.87;54.56;100109.44;7398066;19;1931;-38
2023/10/28 11:23:04;;;;;;;;;;;;;;;22.89;54.37;100106.56;7399737;19;1667;-38
2023/10/28 11:25:36;;;;;;;;;;;;;;;22.82;54.64;100111.84;7396933;19;1858;-38
2023/10/28 11:28:09;;;;;;;;;;;;;;;22.83;54.56;100108.09;7398714;19;1533;-39
2023/10/28 11:30:37;;;;;;;;;;;;;;;22.84;54.66;100112.50;7399295;19;1472;-38
2023/10/28 11:33:07;;;;;;;;;;;;;;;22.88;54.54;100096.78;7398488;19;1405;-38
2023/10/28 11:35:36;;;;;;;;;;;;;;;22.90;54.31;100103.69;7397264;19;2036;-38
2023/10/28 11:38:04;;;;;;;;;;;;;;;22.91;54.44;100112.63;7397535;19;1547;-38
2023/10/28 11:40:35;;;;;;;;;;;;;;;22.85;54.74;100111.47;7398898;19;1785;-38
2023/10/28 11:43:05;;;;;;;;;;;;;;;22.84;54.62;100115.19;7397525;19;1824;-38
2023/10/28 11:45:34;;;;;;;;;;;;;;;22.86;54.40;100112.28;7395801;19;1842;-38
2023/10/28 11:48:03;;;;;;;;;;;;;;;22.87;54.66;100122.09;7397595;19;1555;-38
2023/10/28 11:50:31;;;;;;;;;;;;;;;22.78;54.65;100111.34;7397761;19;1890;-38
2023/10/28 11:52:59;;;;;;;;;;;;;;;22.79;54.64;100114.88;7398659;19;1701;-38
2023/10/28 11:55:28;;;;;;;;;;;;;;;22.75;54.84;100111.69;7395216;19;2608;-38
2023/10/28 11:57:58;;;;;;;;;;;;;;;22.71;54.80;100120.31;7397560;19;1762;-38
2023/10/28 12:00:27;;;;;;;;;;;;;;;22.73;54.93;100113.72;7397727;19;1718;-38
2023/10/28 12:02:55;;;;;;;;;;;;;;;22.76;54.90;100112.50;7398360;19;1912;-38
2023/10/28 12:05:23;;;;;;;;;;;;;;;22.76;54.82;100115.22;7397167;19;1851;-38
2023/10/28 12:07:52;;;;;;;;;;;;;;;22.71;54.73;100107.66;7398773;19;1722;-38
2023/10/28 12:10:20;;;;;;;;;;;;;;;22.72;54.94;100121.97;7398257;19;1461;-38
2023/10/28 12:12:48;;;;;;;;;;;;;;;22.73;54.97;100118.28;7397392;19;1714;-39
2023/10/28 12:15:19;;;;;;;;;;;;;;;22.72;55.11;100120.13;7396714;19;944;-39
2023/10/28 12:17:48;;;;;;;;;;;;;;;22.72;54.90;100124.66;7396654;19;1499;-39
2023/10/28 12:20:17;;;;;;;;;;;;;;;22.67;55.14;100113.59;7397472;19;1375;-39
2023/10/28 12:22:45;;;;;;;;;;;;;;;22.63;55.17;100123.88;7396839;19;1639;-38
2023/10/28 12:25:14;;;;;;;;;;;;;;;22.56;55.32;100123.75;7396351;19;1857;-38
2023/10/28 12:27:44;;;;;;;;;;;;;;;22.59;55.27;100117.16;7397546;19;1754;-38
2023/10/28 12:30:13;;;;;;;;;;;;;;;22.54;55.42;100120.38;7395619;19;1824;-38
2023/10/28 12:32:44;;;;;;;;;;;;;;;22.55;55.42;100124.75;7396702;19;1460;-38
2023/10/28 12:35:13;;;;;;;;;;;;;;;22.56;55.37;100125.56;7397096;19;1955;-38
2023/10/28 12:37:41;;;;;;;;;;;;;;;22.53;55.33;100123.25;7398104;19;1754;-38
2023/10/28 12:40:11;;;;;;;;;;;;;;;22.53;55.54;100120.56;7398491;19;1058;-38
2023/10/28 12:42:39;;;;;;;;;;;;;;;22.55;55.52;100119.34;7393812;19;1821;-38
2023/10/28 12:45:09;;;;;;;;;;;;;;;22.59;55.32;100118.00;7397327;19;1857;-38
2023/10/28 12:47:37;;;;;;;;;;;;;;;22.56;55.54;100126.44;7395764;19;1730;-38
2023/10/28 12:50:12;;;;;;;;;;;;;;;22.53;55.50;100118.69;7395597;19;1828;-38
2023/10/28 12:52:41;;;;;;;;;;;;;;;22.52;55.48;100122.41;7396920;19;1820;-38
2023/10/28 12:55:09;;;;;;;;;;;;;;;22.53;55.39;100117.84;7395999;19;1824;-39
2023/10/28 12:57:37;;;;;;;;;;;;;;;22.53;55.39;100120.56;7396351;19;1084;-38
2023/10/28 13:00:10;;;;;;;;;;;;;;;22.50;55.69;100118.19;7395691;19;1769;-38
2023/10/28 13:02:39;;;;;;;;;;;;;;;22.46;55.75;100106.91;7394419;19;1563;-38
2023/10/28 13:05:10;;;;;;;;;;;;;;;22.47;55.71;100108.63;7394209;19;1862;-38